Latest METARs, TAFs and NOTAMs for LIPZ


---------------------------------------------------------------------------
	(OBSERVATIONS)
LIPZ 211350Z 14006KT CAVOK 28/18 Q1014 NOSIG=
LIPZ 211320Z 14007KT CAVOK 28/18 Q1014 NOSIG=
LIPZ 211250Z 15006KT 130V190 CAVOK 28/17 Q1014 NOSIG=
LIPZ 211220Z 16006KT 130V190 CAVOK 28/17 Q1015 NOSIG=
LIPZ 211150Z 17005KT CAVOK 27/18 Q1015 NOSIG=
LIPZ 211120Z 16005KT CAVOK 27/17 Q1015 NOSIG=
---------------------------------------------------------------------------
	(FC)
Sorry, FC For LIPZ Not Found
---------------------------------------------------------------------------
	(TERMINAL AREA FORECAST)
LIPZ 211100Z 2112/2218 15010KT CAVOK
    BECMG 2116/2118 VRB05KT
    TEMPO 2203/2215 RA
    BECMG 2206/2208 06010KT
    BECMG 2212/2114 15010KT
    TEMPO 2215/2218 TSRA=
---------------------------------------------------------------------------
	(NOTAMS)


LIPZ A3153/18 REF AIP AD 2 LIPZ 5-3 'INSTRUMENT APPROACH PROCEDURE
    ILS OR LOC-Z RWY 04R' MODIFY REMARK ON PLAN VIEW AS FLW:
    - OUTER MARKER REPLACED BY 3.9NM VTS DME OR 5.7NM TES DME
    (1246FT) - DURING MIDDLE MARKER FAILURE: MM REPLACED BY 0.7NM
    VTS DME (214FT. 11 MAY 07:06 2018 UNTIL PERM. CREATED: 11
    MAY 07:06 2018

LIPZ A3917/18 REF AIP AD 2 LIPZ 5-31 (AIP AIRAC AMDT 5/18 - EFFECTIVE
    DATE 21 JUN 2018) INSTRUMENT APPROACH PROCEDURE RNAV (GNSS)
    RWY 22R MODIFY EGNOS CHANNEL TO READ 88224. 21 JUN 00:00
    2018 UNTIL PERM. CREATED: 06 JUN 06:33 2018

LIPZ A3946/18 REF AIP AD 2 LIPZ 3-1 (AOC TYPE A NR PZ A1 3/5)
    - OBSTACLE TREE IDENTIFIED BY NUMBER 6 PSN 3713.1M AFTER
    THR04R AND 100.3M LEFT RCL ON TKOF DIRECTION PSN COORD (WGS-84):
    453110.2N 0122207.1E ELEV AMSL 13.5M/44.3FT - OBSTACLE TREE
    IDENTIFIED BY NUMBER 7 PSN 3749.6M AFTER THR04R AND 79.0M
    LEFT RCL ON TKOF DIRECTION PSN COORD (WGS-84): 453110.7N
    E 0122208.9E ELEV AMSL 14.5M/47.6FT COMPLETELY WITHDRAWN.
    06 JUN 12:25 2018 UNTIL PERM. CREATED: 06 JUN 12:26 2018

LIPZ A3948/18 REF AIP AD2 LIPZ 3-1 (AOC TYPE A NR PZ A2 3/5)
    - OBSTACLE TREE IDENTIFIED BY NUMBER 4 PSN 3646.4M AFTER
    THR04L AND 101.9M RIGHT RCL ON TKOF DIRECTION PSN COORD (WGS-84):
    453110.2N 0122207.1E ELEV AMSL 13.5M/44.3FT - OBSTACLE TREE
    IDENTIFIED BY NUMBER 6 PSN 3682.9M AFTER THR04L AND 123.1M
    RIGHT RCL ON TKOF DIRECTION PSN COORD (WGS-84): 453110.7N
    E 0122208.9E ELEV AMSL 14.5M/47.6FT COMPLETELY WITHDRAWN.
    06 JUN 12:27 2018 UNTIL PERM. CREATED: 06 JUN 12:28 2018

LIPZ A3950/18 REF AOC TYPE B NR PZ 3/5 OBSTACLE GROUP OF TREES
    - PSN COORD (WGS-84): 453110.2N 0122207.1E ELEV AMSL 13.5M/44.3FT
    - PSN COORD (WGS-84): 453110.7N 0122208.9E ELEV AMSL 14.5M/47.6FT
    - PSN COORD (WGS-84): 453112.1N 0122212.2E ELEV AMSL 11.0M/36.1FT
    - PSN COORD (WGS-84): 453112.6N 0122213.8E ELEV AMSL 13.5M/44.3FT
    COMPLETELY WITHDRAWN OBSTACLE TREE PSN COORD (WGS-84): 453107.9N
    0122208.8E ELEV AMSL 7.5M/24.6FT COMPLETELY WITHDRAWN. 06
    JUN 12:30 2018 UNTIL PERM. CREATED: 06 JUN 12:31 2018

LIPZ A4233/18 REF AIP AD 2 LIPZ 4-1 'LINK ROUTES AND STAR RWY04
    L/R' NEW HOLDING RNAV HOLDING PROCEDURE OVER 'PZ507' IMPLEMENTED
    WITH FLW CHARACTERISTICS: -MNM HLDG ALT: FL090 -MAX HLDG
    ALT: FL110 -TURN: LEFT -INBOUND TRACK (MAG) : 018DEG -OUTBOUND
    LEG 5.0NM - WAYPOINT DISTANCE 6.4NM. 19 JUN 00:00 2018 UNTIL
    PERM. CREATED: 13 JUN 08:50 2018

LIPZ A5243/18 ADVANCED ULTRA LIGHT MACHINES ARE NOT ALLOWED TO
    ENTER ATZ REF AIP AD 2 LIPZ 1-9. 18 JUL 12:27 2018 UNTIL
    15 OCT 23:59 2018 ESTIMATED. CREATED: 18 JUL 12:27 2018

LIPZ A5659/18 ACFT STAND 101 CLSD DUE TO WIP. REF AIP AD 2 LIPZ
    2-13. 31 JUL 16:23 2018 UNTIL 18 OCT 18:00 2018. CREATED:
    31 JUL 16:24 2018

LIPZ A5807/18 CHIOGGIA NDB 'CHI' FREQ 408.00KHZ NOT AVBL DUE
    TO MAINT REF AIP AD2 LIPZ 1-8. 06 AUG 08:18 2018 UNTIL 03
    NOV 23:59 2018 ESTIMATED. CREATED: 06 AUG 08:18 2018

LIPZ A6014/18 AERODROME CONTROL SERVICE TEMPORARILY IMPLEMENTED,
    AS DETAILED BELOW, WITH A NEW CONTROL POSITION RESPONSIBLE
    FOR THE DELIVERY TO DEPARTING IFR FLT OF PRIOR-TO-TAXIING
    AERODROME AND METEO INFORMATION, START-UP AND ATC CLEARANCES:
    - CALL SIGN: VENEZIA DELIVERY - FREQ: 118.250MHZ - OPERATIONAL
    HOURS: ATC DISCRETION, ACTUAL AVAILABILITY IS COMMUNICATED
    BY ATIS OR BY AD OPR ON FREQ 131.480MHZ, CALL SIGN 'AERODROME
    OPERATIONS'. REF AIP AD 2 LIPZ 1-7. DAILY 0500-2100, 14 AUG
    10:25 2018 UNTIL 31 OCT 21:00 2018. CREATED: 14 AUG 10:25
    2018

LIPZ A6144/18 RUNWAY 04R/22L AND RWY 04L/22R CLOSED TO ALL OPS
    DUE TO WIP. REF AIP AD 2 LIPZ 2-1. MON-SAT 2245-0345 EXCPT
    SEP 07 AND 08, 03 SEP 22:45 2018 UNTIL 27 OCT 03:45 2018.
    CREATED: 21 AUG 09:44 2018

LIPZ A6280/18 EXIT FROM ACFT STAND 108 MUST BE PERFORMED USING
    PUSH BACK TRACTOR WHEN ACFT STAND 109 IS OCCUPIED. ACFT ENGINE
    START UP ONLY WHEN ON START POINT SP4. REF AIP AD 2 LIPZ
    2-13. 27 AUG 11:13 2018 UNTIL 23 NOV 17:00 2018. CREATED:
    27 AUG 11:13 2018

LIPZ A6731/18 SUP S8/18 IN FORCE FM 01 SEP 2018 TO 20 MAR 2019
    EST. VENEZIA/TESSERA AIRPORT: FLIGHT INFRASTRUCTURE REFURBISHING
    WORKS. CURRENT STATUS OF WORKING PHASES: PHASE 1: ACTIVATED
    WITH FOLLOWING ADDITIONAL REGULATIONS/LIMITATIONS: - ALL
    ACFT MOVING FM STAND 330 MUST BE PUSHED BACK TO IHP (INTERMEDIATE
    HOLDING POSITION) M3, - ACFT STAND 547 CLSD, - TWY 'K' AVAILABLE
    FOR ACFT WITH WING SPAN UP TO 15M, - GP RWY04R UNSERVICEABLE,
    - TURN PAD RWY22R NOT AVAILABLE, - TWY 'T' BTN TWY 'D' (NOT
    INCLUDED) AND TWY 'J' (NOT INCLUDED), TWY 'E', 'F' AND 'L'
    CLOSED DAILY 1500-0700 - CENTRE LINE LIGHTS TWY 'T', BTN
    TWY 'D' (NOT INCLUDED) AND TWY 'J' (NOT INCLUDED), TWY 'E',
    TWY 'F', TWY 'L', TWY 'U' BTN IHP 'U1' AND TWY 'L', TWY 'M'
    BTN IHP 'M1' AND TWY 'L' NOT AVAILABLE. - TWY 'Z' CLSD PHASE
    2: NOT ACTIVATED YET PHASE 3: NOT ACTIVATED YET. 12 SEP 09:11
    2018 UNTIL 10 DEC 23:59 2018 ESTIMATED. CREATED: 12 SEP 09:11
    2018

LIPZ A6860/18 TWY 'Y' CLSD DUE TO WIP REF AIP SUP 08/18 PAGE
    5/23. 15 SEP 06:00 2018 UNTIL 30 SEP 20:00 2018. CREATED:
    14 SEP 14:38 2018

LIPZ A6965/18 AERODROME CONTROL SERVICE. GROUND MOVEMENT CONTROL
    PROVIDED WITHOUT USE OF SMR REF AIP AD 2 LIPZ 1-15. 27 SEP
    07:00 2018 UNTIL 27 SEP 10:00 2018. CREATED: 21 SEP 07:43
    2018

LIPZ A6979/18 INSTRUMENT LANDING SYSTEM (ILS) RWY 04R UNSERVICEABLE.
    REF AIP AD 2 LIPZ 1-8. 24 SEP 22:45 2018 UNTIL 25 SEP 03:45
    2018. CREATED: 21 SEP 11:01 2018

LIPZ A8619/17 REF AIP AD 2 LIPZ 1-6 ITEM 15 'OTHER LIGHTING,
    SECONDARY POWER SUPPLY' BOX 2 'LDI LOCATION AND LIGHTS, ANEMOMETER
    LOCATION AND LIGHTS' CHANGE TO READ: LDI:NIL ANEMOMETERS:
    1) 330M AFTER THR RWY04R, RIGHT SIDE RCL 2) 25M AFTER THR
    RWY04R, RIGHT SIDE RCL 3) 40M BEFORE THR RWY22L, LEFT SIDE
    RCL. 19 DEC 15:51 2017 UNTIL PERM. CREATED: 19 DEC 15:51
    2017

LIPZ F0015/07 [DEFENSE ENERGY SUPPORT CENTER ADVISORY] FUEL AVAILABILITY
    NOT AVAILABLE PHONE AHEAD FOR FUEL AVAILABILITY. 12 JUL 10:20
    2020 UNTIL 01 AUG 25:20 2020

LIPZ V0477/18 [US DOD PROCEDURAL NOTAM] STANDARD INSTRUMENT DEPARTURE
    (SID) AMENDMENT SID RWY 22L/R. EDIT DRD TO MATCH PLAN VIEW
    ALTITUDE RESTRICTION. LUMAV 6V TRANSITION: CHANGE ROUTE DESCRIPTION
    TO READ- CROSS LUMAV AT OR ABOVE FL110. 10 AUG 17:07 2018
    UNTIL 12 OCT 00:01 2018. CREATED: 10 AUG 17:07 2018

---------------------------------------------------------------------------